Time;durP1;ratioP1;P1;durP2;ratioP2;P2;SDS_P1;SDS_P2;PMS_P1;PMS_P2;Temp;Humidity;BMP_temperature;BMP_pressure;BME280_temperature;BME280_humidity;BME280_pressure;Samples;Min_cycle;Max_cycle;Signal;HPM_P1;HPM_P2
2022/05/18 00:00:31;;;;;;;0.28;0.10;;;;;;;21.40;58.77;102831.94;5012967;28;20018;-68
2022/05/18 00:03:04;;;;;;;0.20;0.05;;;;;;;21.43;59.90;102834.38;5012952;28;20030;-67
2022/05/18 00:05:33;;;;;;;1.25;0.10;;;;;;;21.43;59.46;102831.66;5012912;28;20038;-67
2022/05/18 00:07:59;;;;;;;0.20;0.15;;;;;;;21.43;59.93;102826.19;5013785;28;20112;-67
2022/05/18 00:10:24;;;;;;;0.10;0.10;;;;;;;21.43;59.43;102826.19;5012719;28;20060;-67
2022/05/18 00:12:50;;;;;;;0.30;0.20;;;;;;;21.43;59.24;102827.03;5013130;28;20041;-68
2022/05/18 00:15:17;;;;;;;0.35;0.35;;;;;;;21.43;58.76;102826.19;5012916;28;20032;-67
2022/05/18 00:17:43;;;;;;;0.30;0.22;;;;;;;21.45;58.63;102824.16;5024543;28;20025;-67
2022/05/18 00:20:10;;;;;;;0.10;0.10;;;;;;;21.46;59.41;102831.34;5036387;28;20017;-67
2022/05/18 00:22:51;;;;;;;0.10;0.10;;;;;;;21.45;58.24;102824.16;5017350;28;20065;-67
2022/05/18 00:25:18;;;;;;;0.35;0.10;;;;;;;21.46;59.45;102826.75;5012721;28;20037;-67
2022/05/18 00:27:44;;;;;;;0.15;0.15;;;;;;;21.46;58.45;102825.88;5012796;28;20041;-67
2022/05/18 00:30:12;;;;;;;0.30;0.20;;;;;;;21.47;58.26;102835.81;5028204;28;20025;-67
2022/05/18 00:32:37;;;;;;;0.38;0.10;;;;;;;21.47;58.51;102831.22;5012569;28;20029;-68
2022/05/18 00:35:03;;;;;;;0.65;0.47;;;;;;;21.48;59.20;102830.19;5016468;28;20026;-68
2022/05/18 00:37:28;;;;;;;0.13;0.00;;;;;;;21.50;58.84;102838.25;5012561;28;20478;-67
2022/05/18 00:39:54;;;;;;;0.55;0.10;;;;;;;21.48;59.35;102832.94;5012640;28;20030;-68
2022/05/18 00:42:21;;;;;;;0.08;0.08;;;;;;;21.48;59.07;102823.84;5027814;28;20026;-68
2022/05/18 00:44:47;;;;;;;0.10;0.10;;;;;;;21.50;58.70;102827.31;5011624;28;20014;-67
2022/05/18 00:47:12;;;;;;;0.35;0.15;;;;;;;21.50;58.45;102830.03;5012677;28;20072;-68
2022/05/18 00:49:40;;;;;;;0.00;0.00;;;;;;;21.50;58.52;102821.84;5015979;28;20444;-68
2022/05/18 00:52:06;;;;;;;0.17;0.10;;;;;;;21.50;58.28;102816.38;5012550;28;20022;-67
2022/05/18 00:54:35;;;;;;;0.10;0.10;;;;;;;21.49;58.66;102814.63;5012369;28;20504;-67
2022/05/18 00:57:07;;;;;;;0.10;0.10;;;;;;;21.50;57.82;102821.84;5012591;28;20061;-68
2022/05/18 00:59:52;;;;;;;0.20;0.20;;;;;;;21.50;59.08;102816.38;5012296;28;20546;-68
2022/05/18 01:02:20;;;;;;;0.20;0.20;;;;;;;21.52;58.26;102814.38;5013720;28;20112;-68
2022/05/18 01:04:49;;;;;;;0.30;0.30;;;;;;;21.49;57.79;102811.91;5023757;28;20049;-68
2022/05/18 01:07:20;;;;;;;0.43;0.10;;;;;;;21.50;58.44;102817.25;5012497;28;20026;-68
2022/05/18 01:09:47;;;;;;;0.20;0.20;;;;;;;21.51;58.81;102812.66;5011107;28;20021;-68
2022/05/18 01:12:17;;;;;;;0.15;0.15;;;;;;;21.51;58.80;102818.13;5012533;28;20100;-68
2022/05/18 01:14:46;;;;;;;0.28;0.10;;;;;;;21.52;58.67;102814.38;5015077;28;20068;-68
2022/05/18 01:17:18;;;;;;;0.43;0.25;;;;;;;21.53;57.94;102816.09;5012540;28;20033;-68
2022/05/18 01:19:47;;;;;;;0.20;0.20;;;;;;;21.52;58.71;102815.25;5012350;28;20022;-68
2022/05/18 01:22:51;;;;;;;0.28;0.28;;;;;;;21.50;58.03;102808.16;5012264;28;20088;-68
2022/05/18 01:25:26;;;;;;;0.80;0.10;;;;;;;21.52;58.48;102809.75;5009689;28;20034;-68
2022/05/18 01:27:52;;;;;;;0.43;0.22;;;;;;;21.52;58.04;102814.38;5009828;28;20042;-68
2022/05/18 01:30:18;;;;;;;0.28;0.28;;;;;;;21.52;58.49;102808.91;5012551;28;20033;-68
2022/05/18 01:32:47;;;;;;;0.57;0.10;;;;;;;21.50;57.68;102810.88;5014840;28;20022;-67
2022/05/18 01:35:16;;;;;;;0.20;0.20;;;;;;;21.50;57.99;102810.88;5013245;28;20034;-68
2022/05/18 01:37:42;;;;;;;0.32;0.15;;;;;;;21.52;58.67;102803.44;5013076;28;20044;-68
2022/05/18 01:40:13;;;;;;;0.15;0.15;;;;;;;21.53;58.35;102805.16;5013193;28;20029;-68
2022/05/18 01:42:53;;;;;;;0.55;0.30;;;;;;;21.53;58.39;102799.69;5012952;28;20199;-67
2022/05/18 01:45:18;;;;;;;0.10;0.10;;;;;;;21.53;57.68;102796.94;5012906;28;20073;-67
2022/05/18 01:47:44;;;;;;;0.20;0.20;;;;;;;21.53;58.20;102805.16;5037442;28;20014;-66
2022/05/18 01:50:14;;;;;;;1.55;0.43;;;;;;;21.55;58.05;102803.13;5022423;28;20581;-68
2022/05/18 01:52:39;;;;;;;0.20;0.17;;;;;;;21.52;58.24;102800.69;5012805;28;20056;-68
2022/05/18 01:55:05;;;;;;;0.35;0.30;;;;;;;21.53;58.39;102794.22;4996424;28;20042;-67
2022/05/18 01:57:32;;;;;;;0.45;0.13;;;;;;;21.53;57.66;102786.00;5012525;28;20061;-67
2022/05/18 01:59:58;;;;;;;0.50;0.20;;;;;;;21.53;57.81;102796.94;5012826;28;20026;-67
2022/05/18 02:02:24;;;;;;;0.85;0.35;;;;;;;21.54;58.16;102779.50;5013575;28;20034;-67
2022/05/18 02:04:49;;;;;;;0.75;0.17;;;;;;;21.55;58.93;102775.75;5016468;28;20044;-68
2022/05/18 02:07:15;;;;;;;0.63;0.20;;;;;;;21.55;57.80;102778.50;5015049;28;20022;-68
2022/05/18 02:09:41;;;;;;;0.50;0.10;;;;;;;21.55;58.32;102773.03;5014982;28;20366;-67
2022/05/18 02:12:09;;;;;;;0.20;0.13;;;;;;;21.54;58.19;102774.91;5014933;28;20029;-68
2022/05/18 02:14:34;;;;;;;0.63;0.30;;;;;;;21.56;59.29;102777.50;5014836;28;20025;-67
2022/05/18 02:16:59;;;;;;;0.20;0.10;;;;;;;21.56;58.58;102782.97;5014948;28;20068;-68
2022/05/18 02:19:25;;;;;;;0.30;0.10;;;;;;;21.55;58.60;102773.03;5018878;28;20021;-68
2022/05/18 02:21:50;;;;;;;0.95;0.40;;;;;;;21.56;58.12;102777.50;5014593;28;20221;-68
2022/05/18 02:24:16;;;;;;;0.30;0.30;;;;;;;21.56;58.19;102766.53;5014644;28;20030;-68
2022/05/18 02:26:41;;;;;;;0.22;0.17;;;;;;;21.57;59.22;102769.13;5014808;28;20372;-68
2022/05/18 02:29:07;;;;;;;0.30;0.22;;;;;;;21.56;58.45;102772.88;5029860;28;20473;-68
2022/05/18 02:31:33;;;;;;;0.32;0.20;;;;;;;21.59;58.12;102777.19;5027124;28;20488;-68
2022/05/18 02:33:58;;;;;;;0.90;0.30;;;;;;;21.55;58.15;102776.63;5037312;28;20014;-67
2022/05/18 02:36:23;;;;;;;0.65;0.10;;;;;;;21.56;59.42;102778.34;5017466;28;20033;-68
2022/05/18 02:38:50;;;;;;;0.20;0.20;;;;;;;21.54;58.16;102771.31;5029612;28;20433;-68
2022/05/18 02:41:18;;;;;;;0.05;0.05;;;;;;;21.57;57.95;102773.75;5014371;28;20129;-68
2022/05/18 02:43:43;;;;;;;0.25;0.20;;;;;;;21.56;59.08;102767.41;5029652;28;20160;-68
2022/05/18 02:46:18;;;;;;;0.30;0.20;;;;;;;21.56;58.00;102772.88;5014396;28;20474;-68
2022/05/18 02:48:44;;;;;;;0.25;0.20;;;;;;;21.57;58.25;102768.25;5014673;28;20029;-68
2022/05/18 02:51:10;;;;;;;0.30;0.30;;;;;;;21.56;57.88;102772.00;5017842;28;20377;-68
2022/05/18 02:53:36;;;;;;;0.52;0.20;;;;;;;21.55;57.68;102767.56;5014162;28;20032;-68
2022/05/18 02:56:06;;;;;;;0.13;0.13;;;;;;;21.57;57.48;102773.75;5014772;28;20030;-68
2022/05/18 02:58:38;;;;;;;0.15;0.15;;;;;;;21.58;58.84;102778.19;5014297;28;20029;-68
2022/05/18 03:01:08;;;;;;;0.80;0.20;;;;;;;21.56;57.72;102717.28;5029341;28;20473;-67
2022/05/18 03:03:35;;;;;;;0.15;0.15;;;;;;;21.60;58.89;102713.22;5014014;28;20100;-68
2022/05/18 03:06:03;;;;;;;0.20;0.20;;;;;;;21.62;59.45;102702.97;5015111;28;20125;-65
2022/05/18 03:08:29;;;;;;;0.20;0.20;;;;;;;21.64;60.15;102796.75;5015990;28;20497;-67
2022/05/18 03:10:55;;;;;;;0.20;0.20;;;;;;;21.58;58.42;102759.03;5012660;28;20029;-68
2022/05/18 03:13:20;;;;;;;0.20;0.20;;;;;;;21.58;59.76;102753.56;5013953;28;20030;-67
2022/05/18 03:15:47;;;;;;;0.10;0.10;;;;;;;21.59;59.95;102763.50;5013794;28;20026;-69
2022/05/18 03:18:13;;;;;;;0.20;0.20;;;;;;;21.59;60.21;102766.25;5012537;28;20038;-68
2022/05/18 03:23:34;;;;;;;0.20;0.20;;;;;;;21.59;60.26;102758.03;5026147;28;20072;-68
2022/05/18 03:26:09;;;;;;;0.35;0.25;;;;;;;21.58;59.79;102759.91;5012389;28;20088;-68
2022/05/18 03:28:35;;;;;;;0.10;0.10;;;;;;;21.58;60.03;102764.50;5013530;28;20030;-67
2022/05/18 03:31:01;;;;;;;0.65;0.38;;;;;;;21.58;59.54;102770.84;5013666;28;20057;-67
2022/05/18 03:33:26;;;;;;;0.10;0.10;;;;;;;21.61;59.87;102759.59;5013317;28;20473;-67
2022/05/18 03:35:53;;;;;;;0.10;0.10;;;;;;;21.59;60.45;102761.63;5013601;28;20068;-67
2022/05/18 03:38:19;;;;;;;0.40;0.20;;;;;;;21.59;60.25;102763.50;5017159;28;20113;-67
2022/05/18 03:40:45;;;;;;;0.32;0.28;;;;;;;21.60;60.37;102762.50;5013513;28;20479;-67
2022/05/18 03:43:10;;;;;;;0.77;0.20;;;;;;;21.59;60.18;102763.50;5012077;28;20030;-67
2022/05/18 03:45:35;;;;;;;0.30;0.30;;;;;;;21.60;59.94;102762.50;5013636;28;20036;-67
2022/05/18 03:48:01;;;;;;;0.20;0.13;;;;;;;21.59;60.23;102761.63;5013369;28;20068;-66
2022/05/18 03:50:29;;;;;;;0.20;0.20;;;;;;;21.63;59.80;102768.53;5013131;28;20030;-67
2022/05/18 03:52:55;;;;;;;0.60;0.20;;;;;;;21.61;60.17;102761.47;5014038;28;20018;-67
2022/05/18 03:55:21;;;;;;;0.20;0.20;;;;;;;21.61;59.36;102766.94;5013185;28;20488;-67
2022/05/18 03:57:46;;;;;;;0.13;0.10;;;;;;;21.60;60.48;102763.34;5013102;28;20029;-67
2022/05/18 04:00:12;;;;;;;0.30;0.30;;;;;;;21.62;60.74;102765.94;5013107;28;20034;-67
2022/05/18 04:02:38;;;;;;;0.15;0.15;;;;;;;22.09;59.50;102758.63;5012939;28;20025;-68
2022/05/18 04:05:03;;;;;;;0.45;0.30;;;;;;;22.45;58.74;102756.00;5037065;28;20037;-68
2022/05/18 04:07:29;;;;;;;0.15;0.15;;;;;;;22.68;59.05;102759.22;5025674;28;20072;-68
2022/05/18 04:09:54;;;;;;;0.30;0.10;;;;;;;22.84;58.53;102764.00;5014920;28;20114;-67
2022/05/18 04:12:19;;;;;;;0.22;0.20;;;;;;;22.99;58.06;102756.97;5012796;28;20541;-67
2022/05/18 04:14:44;;;;;;;0.15;0.15;;;;;;;23.13;58.78;102759.19;5012899;28;20026;-68
2022/05/18 04:17:10;;;;;;;0.10;0.10;;;;;;;23.22;58.35;102749.16;5013129;28;20029;-68
2022/05/18 04:19:35;;;;;;;0.20;0.20;;;;;;;23.30;58.59;102749.22;5012817;28;20030;-68
2022/05/18 04:22:00;;;;;;;0.20;0.20;;;;;;;23.40;59.44;102744.50;5012592;28;20121;-68
2022/05/18 04:24:26;;;;;;;0.30;0.30;;;;;;;23.46;59.51;102743.84;5012684;28;20077;-68
2022/05/18 04:26:51;;;;;;;0.10;0.10;;;;;;;23.54;60.44;102751.31;5016865;28;20397;-68
2022/05/18 04:29:17;;;;;;;0.25;0.17;;;;;;;23.59;59.88;102744.31;5013247;28;20053;-68
2022/05/18 04:31:42;;;;;;;0.20;0.20;;;;;;;23.68;60.26;102740.63;5011596;28;20038;-68
2022/05/18 04:34:07;;;;;;;0.30;0.15;;;;;;;23.72;60.24;102737.56;5012825;28;20052;-67
2022/05/18 04:36:33;;;;;;;0.45;0.10;;;;;;;23.75;61.28;102739.97;5011407;28;20022;-67
2022/05/18 04:38:58;;;;;;;0.10;0.10;;;;;;;23.81;60.56;102736.56;5012746;28;20058;-67
2022/05/18 04:41:24;;;;;;;0.25;0.20;;;;;;;23.85;61.18;102737.97;5011150;28;20022;-67
2022/05/18 04:43:49;;;;;;;0.13;0.10;;;;;;;23.87;61.56;102730.44;5013700;28;20109;-67
2022/05/18 04:46:14;;;;;;;0.00;0.00;;;;;;;23.91;61.67;102737.31;5023681;28;20022;-68
2022/05/18 04:48:41;;;;;;;0.00;0.00;;;;;;;23.95;61.16;102736.84;5018292;28;20026;-68
2022/05/18 04:51:06;;;;;;;0.28;0.10;;;;;;;23.96;61.61;102729.44;5012884;28;20462;-67
2022/05/18 04:53:35;;;;;;;0.20;0.20;;;;;;;24.01;62.25;102732.56;5012422;28;20044;-67
2022/05/18 04:56:01;;;;;;;0.35;0.32;;;;;;;24.05;62.22;102733.97;5012455;28;20025;-67
2022/05/18 04:58:27;;;;;;;0.10;0.10;;;;;;;24.08;61.20;102728.16;5012265;28;20113;-67
2022/05/18 05:00:58;;;;;;;0.20;0.13;;;;;;;24.13;62.00;102725.75;5012827;28;20057;-68
2022/05/18 05:03:23;;;;;;;0.20;0.15;;;;;;;24.14;61.87;102734.84;5012342;28;20112;-67
2022/05/18 05:05:49;;;;;;;0.47;0.10;;;;;;;24.13;62.49;102731.25;5016265;28;20059;-67
2022/05/18 05:08:14;;;;;;;0.40;0.20;;;;;;;24.17;62.58;102732.63;5016308;28;20026;-67
2022/05/18 05:10:39;;;;;;;0.43;0.20;;;;;;;24.19;62.21;102719.63;5016116;28;20382;-67
2022/05/18 05:13:05;;;;;;;0.20;0.20;;;;;;;24.23;62.25;102718.25;5020154;28;20053;-67
2022/05/18 05:15:31;;;;;;;0.32;0.20;;;;;;;24.23;63.05;102717.41;5016242;28;20025;-67
2022/05/18 05:17:56;;;;;;;0.43;0.30;;;;;;;24.25;62.82;102713.44;5016356;28;20033;-67
2022/05/18 05:20:22;;;;;;;0.20;0.20;;;;;;;24.30;62.21;102716.59;5015958;28;20068;-68
2022/05/18 05:22:47;;;;;;;0.20;0.20;;;;;;;24.28;62.72;102713.09;5015685;28;20390;-68
2022/05/18 05:25:14;;;;;;;0.57;0.30;;;;;;;24.30;62.32;102711.09;5015875;28;20018;-68
2022/05/18 05:27:39;;;;;;;0.30;0.22;;;;;;;24.32;62.92;102712.81;5027563;28;20030;-67
2022/05/18 05:30:06;;;;;;;0.20;0.20;;;;;;;24.36;62.47;102709.59;5039280;28;20026;-66
2022/05/18 05:32:31;;;;;;;1.85;0.30;;;;;;;24.26;61.66;102695.94;5024456;28;20058;-68
2022/05/18 05:34:57;;;;;;;0.17;0.15;;;;;;;23.95;54.61;102706.63;5015750;28;20061;-68
2022/05/18 05:37:22;;;;;;;0.93;0.10;;;;;;;23.90;53.20;102702.66;5014240;28;20028;-70
2022/05/18 05:39:47;;;;;;;1.48;0.20;;;;;;;23.87;53.14;102702.97;5030858;28;20500;-70
2022/05/18 05:42:13;;;;;;;1.27;0.30;;;;;;;23.86;51.40;102695.75;5015553;28;20072;-69
2022/05/18 05:44:38;;;;;;;1.55;0.20;;;;;;;23.58;54.13;102698.69;5015406;28;20265;-69
2022/05/18 05:47:04;;;;;;;0.93;0.65;;;;;;;22.87;52.76;102704.25;5015948;28;20022;-70
2022/05/18 05:49:29;;;;;;;1.33;0.30;;;;;;;22.55;53.52;102698.41;5015322;28;20539;-69
2022/05/18 05:51:54;;;;;;;2.47;0.20;;;;;;;22.31;54.88;102696.22;5036923;28;20050;-70
2022/05/18 05:54:21;;;;;;;3.50;0.60;;;;;;;22.09;53.85;102703.00;5030537;28;20456;-70
2022/05/18 05:56:47;;;;;;;2.63;0.50;;;;;;;21.96;55.20;102696.97;5015445;28;20084;-70
2022/05/18 05:59:13;;;;;;;0.75;0.30;;;;;;;21.74;54.52;102687.25;5015309;28;20116;-70
2022/05/18 06:01:39;;;;;;;0.85;0.25;;;;;;;21.54;54.79;102697.41;5014987;28;20029;-70
2022/05/18 06:04:07;;;;;;;2.38;0.40;;;;;;;21.23;54.12;102693.97;5015305;28;20037;-70
2022/05/18 06:06:35;;;;;;;5.05;1.00;;;;;;;21.11;52.65;102696.00;5014938;28;20065;-69
2022/05/18 06:09:01;;;;;;;1.13;0.40;;;;;;;21.16;51.97;102693.66;5020048;28;20064;-69
2022/05/18 06:11:27;;;;;;;3.00;0.70;;;;;;;21.13;53.60;102680.28;5024490;28;20105;-66
2022/05/18 06:13:52;;;;;;;2.38;0.68;;;;;;;21.16;52.43;102682.72;5051874;28;20044;-69
2022/05/18 06:16:18;;;;;;;2.53;0.40;;;;;;;21.18;52.97;102688.94;5014573;28;20370;-69
2022/05/18 06:18:43;;;;;;;2.60;0.40;;;;;;;21.07;53.17;102683.63;5014913;28;20026;-70
2022/05/18 06:21:08;;;;;;;2.67;0.82;;;;;;;20.99;53.80;102686.19;5014781;28;20069;-69
2022/05/18 06:23:34;;;;;;;4.57;0.50;;;;;;;20.95;52.47;102691.09;5015031;28;20042;-70
2022/05/18 06:26:01;;;;;;;4.05;0.40;;;;;;;21.00;52.84;102682.50;5015789;28;20105;-68
2022/05/18 06:28:27;;;;;;;2.80;0.70;;;;;;;21.01;51.91;102673.28;5019411;28;20022;-69
2022/05/18 06:30:52;;;;;;;2.58;0.38;;;;;;;20.99;51.92;102681.59;5014842;28;20488;-69
2022/05/18 06:33:17;;;;;;;7.53;0.60;;;;;;;20.96;50.44;102672.81;5014578;28;20014;-65
2022/05/18 06:35:44;;;;;;;3.28;0.77;;;;;;;20.96;52.86;102675.56;5014513;28;20025;-68
2022/05/18 06:38:14;;;;;;;3.80;0.70;;;;;;;21.11;51.40;102675.97;5014464;28;20026;-70
2022/05/18 06:43:35;;;;;;;3.42;0.40;;;;;;;21.16;48.96;102671.78;5015159;28;20172;-69
2022/05/18 06:46:03;;;;;;;2.00;0.80;;;;;;;21.11;48.24;102679.59;5012048;28;20109;-67
2022/05/18 06:48:32;;;;;;;2.40;0.40;;;;;;;21.11;50.30;102674.13;5011689;28;20038;-67
2022/05/18 06:50:57;;;;;;;2.75;0.30;;;;;;;21.05;48.79;102669.22;5011925;28;20033;-68
2022/05/18 06:53:22;;;;;;;0.82;0.15;;;;;;;21.06;48.00;102665.50;5011532;28;20038;-66
2022/05/18 06:55:49;;;;;;;4.75;0.20;;;;;;;21.08;50.00;102663.47;5011723;28;20041;-66
2022/05/18 06:58:15;;;;;;;5.15;0.30;;;;;;;20.97;48.38;102664.47;4999626;28;20465;-68
2022/05/18 07:00:40;;;;;;;0.85;0.30;;;;;;;20.97;49.27;102666.34;5011627;28;20044;-69
2022/05/18 07:03:05;;;;;;;1.63;0.20;;;;;;;20.83;47.64;102670.41;5011806;28;20024;-66
2022/05/18 07:05:31;;;;;;;2.40;0.30;;;;;;;20.77;50.83;102670.09;5011263;28;20037;-63
2022/05/18 07:07:57;;;;;;;1.58;0.30;;;;;;;20.76;50.79;102657.44;5011590;28;20069;-63
2022/05/18 07:10:22;;;;;;;1.70;0.28;;;;;;;20.67;49.02;102665.50;5011222;28;20429;-70
2022/05/18 07:12:47;;;;;;;6.22;0.50;;;;;;;20.64;49.26;102663.03;5011476;28;20088;-68
2022/05/18 07:15:13;;;;;;;0.95;0.20;;;;;;;20.66;47.20;102669.25;5011470;28;20092;-67
2022/05/18 07:17:39;;;;;;;4.47;0.20;;;;;;;20.71;47.59;102674.28;5011834;28;20029;-67
2022/05/18 07:20:05;;;;;;;7.22;0.63;;;;;;;20.65;48.89;102666.63;5012720;28;20532;-67
2022/05/18 07:22:30;;;;;;;1.98;0.38;;;;;;;20.58;48.74;102671.81;5013318;28;20057;-65
2022/05/18 07:24:56;;;;;;;1.42;0.52;;;;;;;20.59;46.93;102661.75;5013688;28;20025;-64
2022/05/18 07:27:21;;;;;;;0.93;0.40;;;;;;;20.61;48.68;102660.59;5012793;28;20483;-64
2022/05/18 07:29:47;;;;;;;2.00;0.40;;;;;;;20.63;48.47;102663.19;5013822;28;20018;-64
2022/05/18 07:32:13;;;;;;;3.50;0.30;;;;;;;20.57;48.35;102659.16;5013514;28;20354;-62
2022/05/18 07:34:44;;;;;;;2.47;0.47;;;;;;;20.58;49.62;102652.69;5013351;28;20388;-63
2022/05/18 07:37:09;;;;;;;2.55;0.43;;;;;;;20.50;49.71;102648.97;5013385;28;20022;-63
2022/05/18 07:39:36;;;;;;;4.57;0.35;;;;;;;20.58;49.41;102649.09;5011939;28;20533;-63
2022/05/18 07:42:01;;;;;;;3.80;0.35;;;;;;;20.78;46.83;102641.75;5013325;28;20030;-63
2022/05/18 07:44:28;;;;;;;4.38;0.38;;;;;;;20.89;46.34;102641.63;5013151;28;20114;-61
2022/05/18 07:46:55;;;;;;;5.82;0.98;;;;;;;20.92;48.38;102630.38;5028757;28;20359;-64
2022/05/18 07:49:20;;;;;;;5.60;0.70;;;;;;;20.72;47.86;102635.00;5013936;28;20036;-61
2022/05/18 07:51:46;;;;;;;2.60;0.50;;;;;;;20.70;49.08;102629.69;5016586;28;20022;-64
2022/05/18 07:54:14;;;;;;;0.75;0.22;;;;;;;20.79;51.03;102627.94;5013282;28;20025;-65
2022/05/18 07:56:41;;;;;;;0.77;0.30;;;;;;;20.86;49.19;102628.25;5013049;28;20029;-65
2022/05/18 07:59:08;;;;;;;1.40;0.40;;;;;;;20.81;51.10;102627.78;5013097;28;20024;-65
2022/05/18 08:01:36;;;;;;;1.40;0.30;;;;;;;20.83;51.83;102623.06;5012879;28;20149;-64
2022/05/18 08:04:01;;;;;;;2.05;0.50;;;;;;;20.95;52.68;102619.16;5013074;28;20091;-65
2022/05/18 08:06:27;;;;;;;0.70;0.35;;;;;;;20.92;52.84;102613.97;5013693;28;20532;-62
2022/05/18 08:08:53;;;;;;;1.77;0.60;;;;;;;20.83;51.42;102613.00;5015424;28;20034;-64
2022/05/18 08:16:47;;;;;;;3.50;0.80;;;;;;;20.97;51.08;102606.19;5013386;28;20037;-67
2022/05/18 08:19:14;;;;;;;2.05;0.80;;;;;;;20.92;51.67;102598.44;5012767;28;20385;-66
2022/05/18 08:21:40;;;;;;;2.60;0.68;;;;;;;20.99;52.11;102587.75;5027530;28;20045;-65
2022/05/18 08:24:07;;;;;;;2.42;0.60;;;;;;;21.00;54.16;102584.03;5012841;28;20022;-67
2022/05/18 08:26:32;;;;;;;2.10;0.63;;;;;;;21.02;52.08;102582.03;5016976;28;20409;-70
2022/05/18 08:28:59;;;;;;;1.10;0.63;;;;;;;21.09;52.40;102577.69;5012839;28;20025;-67
2022/05/18 08:31:24;;;;;;;1.75;0.50;;;;;;;21.10;51.53;102579.41;5011273;28;20096;-67
2022/05/18 08:33:49;;;;;;;0.50;0.30;;;;;;;21.07;49.87;102579.69;5019888;28;20026;-67
2022/05/18 08:36:17;;;;;;;0.40;0.30;;;;;;;21.02;51.57;102565.63;5012631;28;20021;-66
2022/05/18 08:38:43;;;;;;;0.82;0.20;;;;;;;21.04;50.20;102563.59;5014896;28;20423;-66
2022/05/18 08:41:18;;;;;;;1.75;0.22;;;;;;;21.06;50.84;102571.66;5016555;28;20022;-66
2022/05/18 08:43:46;;;;;;;0.45;0.10;;;;;;;21.09;48.49;102564.00;5017298;28;20026;-66
2022/05/18 08:46:39;;;;;;;1.65;0.20;;;;;;;21.13;48.43;102561.81;5016599;28;20022;-66
2022/05/18 08:49:23;;;;;;;1.88;0.13;;;;;;;21.04;52.36;102558.13;5031721;28;20032;-64
2022/05/18 08:52:17;;;;;;;0.25;0.10;;;;;;;20.98;47.88;102558.69;5016781;28;20018;-64
2022/05/18 08:55:10;;;;;;;0.17;0.10;;;;;;;20.93;48.13;102550.94;5016459;28;20034;-68
2022/05/18 08:57:42;;;;;;;1.75;0.30;;;;;;;20.97;52.45;102556.97;5011106;28;20511;-67
2022/05/18 09:00:15;;;;;;;4.53;0.35;;;;;;;20.96;52.63;102544.31;5016502;28;20033;-66
2022/05/18 09:02:41;;;;;;;1.13;0.30;;;;;;;20.95;52.52;102550.78;5000706;28;20065;-67
2022/05/18 09:05:12;;;;;;;1.13;0.20;;;;;;;20.99;51.40;102539.41;5016175;28;20084;-67
2022/05/18 09:07:43;;;;;;;0.90;0.30;;;;;;;20.94;52.24;102538.13;5011058;28;20101;-65
2022/05/18 09:10:25;;;;;;;3.78;0.30;;;;;;;21.05;51.68;102542.59;5016252;28;20022;-71
2022/05/18 09:12:51;;;;;;;3.35;0.28;;;;;;;20.98;53.96;102539.56;5014906;28;20084;-65
2022/05/18 09:15:23;;;;;;;6.80;0.60;;;;;;;20.92;53.27;102542.88;5015979;28;20465;-66
2022/05/18 09:17:54;;;;;;;3.72;0.40;;;;;;;20.95;53.59;102539.84;5020051;28;20034;-66
2022/05/18 09:20:29;;;;;;;1.08;0.32;;;;;;;20.53;52.70;102529.31;5020105;28;20030;-66
2022/05/18 09:23:09;;;;;;;1.92;0.65;;;;;;;20.35;49.97;102528.28;5015967;28;20054;-64
2022/05/18 09:25:59;;;;;;;2.15;0.50;;;;;;;20.25;49.04;102527.41;5010411;28;20054;-63
2022/05/18 09:28:42;;;;;;;6.38;3.13;;;;;;;20.40;50.22;102525.97;5027696;28;20117;-66
2022/05/18 09:31:22;;;;;;;7.78;3.33;;;;;;;20.46;50.61;102481.69;5013000;28;20034;-65
2022/05/18 09:34:14;;;;;;;11.95;3.17;;;;;;;20.39;49.16;102524.25;5007486;28;20033;-66
2022/05/18 09:37:03;;;;;;;7.95;2.65;;;;;;;20.24;49.73;102515.63;5011294;28;20037;-61
2022/05/18 09:39:36;;;;;;;4.88;2.13;;;;;;;20.22;49.97;102516.78;5027319;28;20633;-62
2022/05/18 09:42:06;;;;;;;9.05;2.28;;;;;;;20.12;50.25;102514.88;5006532;28;20029;-62
2022/05/18 09:44:42;;;;;;;3.47;2.00;;;;;;;20.09;50.64;102506.97;5007202;28;20073;-64
2022/05/18 09:47:12;;;;;;;3.28;1.58;;;;;;;20.05;50.70;102504.69;5022070;28;20076;-62
2022/05/18 09:49:43;;;;;;;4.30;1.75;;;;;;;20.05;49.39;102497.34;5013069;28;20033;-65
2022/05/18 09:52:09;;;;;;;2.65;1.52;;;;;;;20.03;49.82;102502.09;5012398;28;20018;-63
2022/05/18 09:54:37;;;;;;;2.47;1.70;;;;;;;19.99;50.69;102495.22;5007671;28;20022;-63
2022/05/18 09:57:16;;;;;;;2.53;1.33;;;;;;;19.95;49.68;102488.28;5015446;28;20028;-64
2022/05/18 09:59:45;;;;;;;2.63;1.58;;;;;;;19.91;49.55;102481.41;5007569;28;20049;-63
2022/05/18 10:07:53;;;;;;;1.02;0.88;;;;;;;19.83;49.81;102473.06;5024892;28;20453;-62
2022/05/18 10:10:35;;;;;;;1.50;0.80;;;;;;;19.82;49.93;102460.44;5014986;28;20057;-67
2022/05/18 10:13:06;;;;;;;1.58;0.82;;;;;;;19.79;50.21;102466.16;5012042;28;20049;-65
2022/05/18 10:15:47;;;;;;;1.67;0.90;;;;;;;19.70;55.39;102464.28;5009813;28;20041;-65
2022/05/18 10:18:42;;;;;;;1.20;0.70;;;;;;;19.67;53.68;102461.84;5009273;28;20674;-66
2022/05/18 10:21:18;;;;;;;1.58;1.00;;;;;;;19.69;55.35;102459.84;5014637;28;20050;-65
2022/05/18 10:24:23;;;;;;;2.15;0.70;;;;;;;19.70;53.39;102439.72;5030496;28;20385;-66
2022/05/18 10:27:12;;;;;;;2.75;1.00;;;;;;;19.67;54.74;102445.47;5014801;28;20112;-65
2022/05/18 10:29:37;;;;;;;1.00;0.50;;;;;;;19.67;53.11;102445.47;5014637;28;20057;-65
2022/05/18 10:32:05;;;;;;;1.08;0.30;;;;;;;19.69;55.27;102435.28;5014769;28;20072;-65
2022/05/18 10:34:33;;;;;;;3.10;0.77;;;;;;;19.68;54.89;102441.75;5015303;28;20036;-66
2022/05/18 10:37:01;;;;;;;1.73;0.47;;;;;;;19.85;57.21;102427.38;5014625;28;20029;-65
2022/05/18 10:39:47;;;;;;;2.33;0.80;;;;;;;20.33;59.45;102423.75;5014335;28;20025;-65
2022/05/18 10:42:15;;;;;;;1.80;0.65;;;;;;;20.55;58.88;102426.19;5014409;28;20025;-64
2022/05/18 10:44:40;;;;;;;0.88;0.30;;;;;;;20.71;57.78;102412.75;5029644;28;20038;-65
2022/05/18 10:47:32;;;;;;;1.10;0.30;;;;;;;20.83;61.06;102412.59;5014400;28;20034;-65
2022/05/18 10:50:27;;;;;;;0.40;0.40;;;;;;;20.91;61.72;102405.34;5014249;28;20550;-66
2022/05/18 10:53:16;;;;;;;0.73;0.50;;;;;;;20.96;61.99;102402.13;5014401;28;20049;-65
2022/05/18 10:55:56;;;;;;;0.80;0.28;;;;;;;21.05;61.39;102395.78;5014155;28;20026;-65
2022/05/18 10:58:26;;;;;;;0.32;0.30;;;;;;;21.14;61.72;102389.38;5014055;28;20457;-65
2022/05/18 11:00:57;;;;;;;0.43;0.40;;;;;;;21.17;61.90;102389.09;5013611;28;20034;-68
2022/05/18 11:03:38;;;;;;;1.23;0.30;;;;;;;21.26;62.12;102376.38;5013491;28;20156;-66
2022/05/18 11:06:20;;;;;;;0.93;0.50;;;;;;;21.29;62.39;102368.72;5017346;28;20053;-66
2022/05/18 11:08:46;;;;;;;2.55;0.40;;;;;;;21.37;63.08;102365.25;5014039;28;20082;-66
2022/05/18 11:11:19;;;;;;;1.50;0.45;;;;;;;21.41;62.54;102363.03;5012659;28;20109;-66
2022/05/18 11:14:16;;;;;;;0.40;0.30;;;;;;;21.46;62.38;102363.44;5011903;28;20081;-65
2022/05/18 11:16:47;;;;;;;0.70;0.40;;;;;;;21.65;61.21;102371.47;5010836;28;20084;-64
2022/05/18 11:19:46;;;;;;;1.83;0.50;;;;;;;21.74;60.84;102365.06;5013579;28;20108;-63
2022/05/18 11:22:33;;;;;;;1.38;0.50;;;;;;;21.79;60.79;102365.47;4994125;28;20038;-65
2022/05/18 11:25:36;;;;;;;1.48;0.50;;;;;;;22.19;59.22;102364.13;5022137;28;20028;-68
2022/05/18 11:28:13;;;;;;;0.45;0.43;;;;;;;22.55;57.49;102353.03;5013537;28;20404;-66
2022/05/18 11:31:00;;;;;;;0.52;0.43;;;;;;;22.71;56.85;102342.16;5013549;28;20038;-68
2022/05/18 11:33:38;;;;;;;2.35;0.60;;;;;;;22.86;56.13;102334.19;5014892;28;20021;-67
2022/05/18 11:36:24;;;;;;;2.40;0.85;;;;;;;22.98;55.10;102343.81;5003440;28;20052;-67
2022/05/18 11:39:26;;;;;;;1.95;0.52;;;;;;;23.07;54.76;102335.47;5023109;28;20383;-68
2022/05/18 11:42:12;;;;;;;1.80;0.80;;;;;;;23.13;53.61;102328.44;4990821;28;20045;-67
2022/05/18 11:44:53;;;;;;;0.73;0.50;;;;;;;23.24;52.83;102327.28;4999680;28;20402;-67
2022/05/18 11:47:34;;;;;;;1.50;0.50;;;;;;;23.29;52.70;102322.13;4992403;28;20501;-65
2022/05/18 11:50:30;;;;;;;1.02;0.52;;;;;;;23.34;52.34;102322.47;5003462;28;20030;-67
2022/05/18 11:53:13;;;;;;;1.40;0.43;;;;;;;23.35;52.40;102318.72;5001626;28;20034;-67